Time;durP1;ratioP1;P1;durP2;ratioP2;P2;SDS_P1;SDS_P2;PMS_P1;PMS_P2;Temp;Humidity;BMP_temperature;BMP_pressure;BME280_temperature;BME280_humidity;BME280_pressure;Samples;Min_cycle;Max_cycle;Signal;HPM_P1;HPM_P2
2022/10/29 00:00:11;;;;;;;8.18;4.95;;;;;;;15.25;79.70;100201.16;342140;28;1378;-72
2022/10/29 00:00:23;;;;;;;9.23;5.18;;;;;;;15.25;79.59;100201.16;340728;29;1337;-73
2022/10/29 00:00:34;;;;;;;10.38;5.20;;;;;;;15.23;79.46;100196.88;340817;29;1092;-73
2022/10/29 00:00:50;;;;;;;13.30;5.50;;;;;;;15.22;79.39;100197.81;340991;28;1838;-73
2022/10/29 00:01:03;;;;;;;14.82;5.55;;;;;;;15.20;79.43;100197.00;342255;28;1183;-73
2022/10/29 00:01:14;;;;;;;11.95;5.63;;;;;;;15.20;79.40;100200.47;342056;28;1055;-74
2022/10/29 00:01:26;;;;;;;9.13;5.55;;;;;;;15.21;79.59;100194.31;341683;28;1533;-72
2022/10/29 00:01:38;;;;;;;8.70;5.18;;;;;;;15.23;79.22;100196.88;340796;29;1251;-72
2022/10/29 00:01:50;;;;;;;10.32;5.25;;;;;;;15.24;79.42;100198.59;339842;29;739;-73
2022/10/29 00:02:02;;;;;;;9.98;5.32;;;;;;;15.24;79.37;100195.97;339396;29;1108;-73
2022/10/29 00:02:15;;;;;;;11.07;5.43;;;;;;;15.26;79.46;100205.44;339585;29;1024;-73
2022/10/29 00:02:27;;;;;;;10.98;5.57;;;;;;;15.26;79.44;100194.97;340285;29;1186;-73
2022/10/29 00:02:39;;;;;;;9.50;5.47;;;;;;;15.25;79.65;100201.16;340732;29;1038;-73
2022/10/29 00:02:51;;;;;;;8.50;5.45;;;;;;;15.27;79.58;100198.44;340842;29;1203;-72
2022/10/29 00:03:03;;;;;;;10.25;5.40;;;;;;;15.27;79.36;100199.31;340640;29;1101;-73
2022/10/29 00:03:15;;;;;;;10.93;5.20;;;;;;;15.29;79.26;100196.59;340856;29;1069;-72
2022/10/29 00:03:27;;;;;;;11.60;5.40;;;;;;;15.26;79.56;100194.97;340570;28;1730;-72
2022/10/29 00:03:39;;;;;;;12.73;5.38;;;;;;;15.23;79.83;100191.63;339812;28;1544;-72
2022/10/29 00:03:51;;;;;;;13.25;5.63;;;;;;;15.21;79.92;100201.31;340379;28;1964;-74
2022/10/29 00:04:03;;;;;;;11.88;5.57;;;;;;;15.21;79.78;100194.31;340877;29;1569;-75
2022/10/29 00:04:15;;;;;;;9.75;5.30;;;;;;;15.21;79.66;100203.94;340028;28;1491;-74
2022/10/29 00:04:27;;;;;;;8.73;5.63;;;;;;;15.20;79.69;100197.00;340812;29;2053;-72
2022/10/29 00:04:39;;;;;;;9.85;5.72;;;;;;;15.20;79.63;100202.25;340562;29;1175;-73
2022/10/29 00:04:51;;;;;;;11.02;5.70;;;;;;;15.21;79.46;100203.94;340686;29;1348;-72
2022/10/29 00:05:03;;;;;;;10.80;5.60;;;;;;;15.21;79.63;100198.69;340691;29;1080;-72
2022/10/29 00:05:15;;;;;;;12.27;5.72;;;;;;;15.22;79.66;100205.66;340561;28;1994;-73
2022/10/29 00:05:27;;;;;;;12.02;5.72;;;;;;;15.21;79.65;100193.47;340461;28;1709;-71
2022/10/29 00:05:39;;;;;;;10.30;5.50;;;;;;;15.18;79.76;100200.53;342162;28;1104;-73
2022/10/29 00:05:55;;;;;;;9.13;5.38;;;;;;;15.14;79.70;100198.97;342046;28;1012;-71
2022/10/29 00:06:10;;;;;;;10.23;5.32;;;;;;;15.13;79.88;100210.38;342574;28;1678;-72
2022/10/29 00:06:22;;;;;;;9.65;5.38;;;;;;;15.16;79.92;100202.38;342705;28;1985;-74
2022/10/29 00:06:34;;;;;;;9.48;5.25;;;;;;;15.16;79.78;100207.59;343052;28;1712;-72
2022/10/29 00:06:47;;;;;;;9.77;5.38;;;;;;;15.18;79.76;100200.53;343703;28;1062;-71
2022/10/29 00:07:04;;;;;;;8.65;5.22;;;;;;;15.21;79.76;100199.53;342724;28;1803;-71
2022/10/29 00:07:16;;;;;;;8.98;5.15;;;;;;;15.24;79.98;100198.59;342285;28;1270;-72
2022/10/29 00:07:28;;;;;;;10.50;5.40;;;;;;;15.23;79.75;100194.25;340912;29;1160;-71
2022/10/29 00:07:40;;;;;;;10.63;5.50;;;;;;;15.23;79.82;100196.88;340610;29;1041;-72
2022/10/29 00:07:52;;;;;;;12.55;5.35;;;;;;;15.21;79.92;100199.53;341124;28;1993;-72
2022/10/29 00:08:04;;;;;;;13.68;5.40;;;;;;;15.24;79.80;100201.19;342324;28;1177;-71
2022/10/29 00:08:16;;;;;;;13.57;5.38;;;;;;;15.25;79.86;100200.28;341819;28;1296;-71
2022/10/29 00:08:30;;;;;;;10.90;5.43;;;;;;;15.22;79.97;100200.41;342101;28;1096;-71
2022/10/29 00:08:42;;;;;;;9.55;5.60;;;;;;;15.26;79.95;100197.59;340724;29;1197;-72
2022/10/29 00:08:55;;;;;;;10.93;5.70;;;;;;;15.28;79.47;100194.91;340274;29;1296;-72
2022/10/29 00:09:06;;;;;;;11.77;5.88;;;;;;;15.29;79.49;100197.47;340894;28;1299;-73
2022/10/29 00:09:18;;;;;;;11.50;5.72;;;;;;;15.29;79.51;100201.84;341739;28;1594;-73
2022/10/29 00:09:30;;;;;;;11.38;5.97;;;;;;;15.30;79.53;100198.31;341991;28;1067;-71
2022/10/29 00:09:42;;;;;;;10.50;5.82;;;;;;;15.30;79.53;100198.31;342174;28;1131;-72
2022/10/29 00:09:54;;;;;;;9.90;5.93;;;;;;;15.25;79.87;100195.91;343647;28;1104;-71
2022/10/29 00:10:07;;;;;;;10.82;5.78;;;;;;;15.24;80.17;100193.34;343272;28;1127;-72
2022/10/29 00:10:19;;;;;;;11.77;5.90;;;;;;;15.24;79.95;100193.34;342752;28;1612;-73
2022/10/29 00:10:31;;;;;;;10.82;5.85;;;;;;;15.23;80.25;100186.38;343607;28;1210;-74
2022/10/29 00:10:43;;;;;;;11.38;5.97;;;;;;;15.25;80.12;100189.78;343402;28;1320;-73
2022/10/29 00:11:03;;;;;;;10.25;5.60;;;;;;;15.27;80.28;100198.44;343576;28;1055;-73
2022/10/29 00:11:18;;;;;;;9.82;5.22;;;;;;;15.31;79.88;100198.25;343389;28;1225;-73
2022/10/29 00:11:30;;;;;;;9.65;5.10;;;;;;;15.33;79.72;100195.53;341765;28;1261;-73
2022/10/29 00:11:42;;;;;;;11.75;5.55;;;;;;;15.31;79.29;100194.75;342050;28;1094;-72
2022/10/29 00:11:54;;;;;;;12.40;5.40;;;;;;;15.32;79.23;100201.72;342205;28;1034;-72
2022/10/29 00:12:06;;;;;;;10.27;5.07;;;;;;;15.27;78.90;100198.44;342141;28;1028;-72
2022/10/29 00:12:18;;;;;;;9.07;4.97;;;;;;;15.16;78.58;100193.66;342738;28;1767;-73
2022/10/29 00:12:30;;;;;;;9.37;5.00;;;;;;;15.12;78.90;100195.56;342011;28;1812;-73
2022/10/29 00:12:42;;;;;;;9.10;4.90;;;;;;;15.11;78.89;100193.00;341721;28;1037;-74
2022/10/29 00:12:54;;;;;;;7.90;4.65;;;;;;;15.11;78.90;100187.75;341974;28;1081;-73
2022/10/29 00:13:06;;;;;;;7.78;4.65;;;;;;;15.14;79.07;100187.66;341496;28;1876;-74
2022/10/29 00:13:33;;;;;;;9.27;4.90;;;;;;;15.12;79.34;100190.31;346372;23;2095;-86
2022/10/29 00:13:51;;;;;;;8.93;4.85;;;;;;;15.15;79.27;100199.81;345114;28;1706;-86
2022/10/29 00:14:04;;;;;;;9.75;4.45;;;;;;;15.18;79.26;100190.06;344664;28;1132;-86
2022/10/29 00:14:20;;;;;;;12.55;4.68;;;;;;;15.18;79.27;100190.06;343908;28;1325;-85
2022/10/29 00:14:32;;;;;;;11.75;5.07;;;;;;;15.19;78.96;100190.91;344979;28;1257;-86
2022/10/29 00:14:44;;;;;;;7.80;4.90;;;;;;;15.13;78.93;100194.66;344765;28;1226;-86
2022/10/29 00:14:57;;;;;;;8.82;4.72;;;;;;;15.00;78.98;100198.72;345277;28;749;-86
2022/10/29 00:15:10;;;;;;;9.98;4.82;;;;;;;14.86;79.37;100198.44;344990;28;962;-86
2022/10/29 00:15:22;;;;;;;10.32;5.00;;;;;;;14.83;79.64;100193.31;344659;28;1159;-86
2022/10/29 00:15:39;;;;;;;8.55;5.05;;;;;;;14.83;80.25;100190.69;344507;28;1056;-86
2022/10/29 00:15:53;;;;;;;11.32;5.13;;;;;;;14.84;80.58;100192.41;345039;28;1084;-85
2022/10/29 00:16:17;;;;;;;12.73;4.93;;;;;;;14.80;81.08;100190.84;345551;28;1102;-85
2022/10/29 00:16:36;;;;;;;10.10;4.88;;;;;;;14.84;81.18;100195.03;341448;28;1855;-86
2022/10/29 00:16:55;;;;;;;13.20;4.90;;;;;;;14.85;80.83;100191.47;343393;28;967;-85
2022/10/29 00:17:07;;;;;;;12.48;4.80;;;;;;;14.90;80.73;100198.22;343645;28;1005;-86
2022/10/29 00:17:20;;;;;;;10.23;4.90;;;;;;;14.93;80.67;100189.41;343718;28;1180;-86
2022/10/29 00:17:34;;;;;;;9.25;4.75;;;;;;;14.96;80.60;100195.34;343329;28;956;-85
2022/10/29 00:17:46;;;;;;;9.23;4.70;;;;;;;14.99;80.29;100191.78;342235;28;1901;-86
2022/10/29 00:17:58;;;;;;;9.70;4.45;;;;;;;15.01;80.28;100192.56;343105;28;1805;-86
2022/10/29 00:18:10;;;;;;;8.70;4.20;;;;;;;15.05;80.32;100194.13;343338;28;1067;-86
2022/10/29 00:18:22;;;;;;;8.93;4.45;;;;;;;15.02;79.98;100194.25;342075;28;1366;-85
2022/10/29 00:18:34;;;;;;;10.00;5.45;;;;;;;15.04;80.03;100186.34;342703;28;2533;-86
2022/10/29 00:18:47;;;;;;;9.63;5.50;;;;;;;15.00;79.85;100190.84;344243;28;1181;-85
2022/10/29 00:19:00;;;;;;;9.23;4.88;;;;;;;14.99;80.06;100189.16;343562;28;2211;-86
2022/10/29 00:19:12;;;;;;;10.20;4.95;;;;;;;14.98;80.07;100190.06;342740;28;1492;-86
2022/10/29 00:19:26;;;;;;;10.55;4.95;;;;;;;14.93;80.19;100189.41;343667;28;1093;-86
2022/10/29 00:19:38;;;;;;;11.02;4.82;;;;;;;14.91;80.31;100191.22;343460;28;2815;-85
2022/10/29 00:19:50;;;;;;;10.45;4.80;;;;;;;14.89;80.10;100193.06;342403;28;1155;-86
2022/10/29 00:20:03;;;;;;;11.00;5.03;;;;;;;14.88;80.36;100193.97;342217;28;991;-85
2022/10/29 00:20:19;;;;;;;11.95;4.95;;;;;;;14.91;80.18;100191.22;341984;28;1216;-86
2022/10/29 00:20:31;;;;;;;11.57;4.90;;;;;;;14.92;80.09;100192.94;343687;28;917;-85
2022/10/29 00:20:43;;;;;;;11.57;4.75;;;;;;;14.96;80.22;100191.91;343150;28;1242;-86
2022/10/29 00:21:00;;;;;;;10.82;4.70;;;;;;;14.98;80.30;100187.44;343428;28;856;-85
2022/10/29 00:21:19;;;;;;;11.35;5.00;;;;;;;14.96;80.77;100192.75;343372;28;1234;-86
2022/10/29 00:21:33;;;;;;;11.43;5.15;;;;;;;14.99;80.49;100191.78;343735;28;1082;-85
2022/10/29 00:21:45;;;;;;;9.32;4.97;;;;;;;15.01;80.29;100192.56;341887;28;1178;-86
2022/10/29 00:21:57;;;;;;;9.18;5.15;;;;;;;15.02;80.36;100193.41;342327;28;1653;-85
2022/10/29 00:22:09;;;;;;;9.95;5.47;;;;;;;15.02;80.41;100194.25;342292;28;1211;-86
2022/10/29 00:22:21;;;;;;;10.35;5.40;;;;;;;15.03;80.34;100195.97;342925;28;1043;-86
2022/10/29 00:22:34;;;;;;;9.02;5.03;;;;;;;15.06;80.38;100190.59;342278;28;1141;-86
2022/10/29 00:22:47;;;;;;;9.00;4.50;;;;;;;15.09;80.16;100193.09;341862;28;1055;-85
2022/10/29 00:23:06;;;;;;;7.28;4.30;;;;;;;15.09;80.00;100195.72;341820;28;1224;-86
2022/10/29 00:23:20;;;;;;;8.07;4.60;;;;;;;15.09;80.15;100190.47;342314;28;978;-85
2022/10/29 00:23:34;;;;;;;10.57;5.10;;;;;;;15.11;79.93;100186.03;342155;28;1047;-85
2022/10/29 00:23:46;;;;;;;11.82;4.97;;;;;;;15.11;79.75;100188.63;341856;28;1501;-85
2022/10/29 00:23:59;;;;;;;12.70;4.85;;;;;;;15.10;79.74;100188.69;341344;29;3044;-85
2022/10/29 00:24:11;;;;;;;9.63;4.32;;;;;;;15.09;79.65;100190.47;340805;28;1123;-86
2022/10/29 00:24:23;;;;;;;7.85;4.40;;;;;;;15.07;79.81;100197.53;341577;28;1665;-85
2022/10/29 00:24:35;;;;;;;8.68;4.40;;;;;;;15.04;79.91;100192.41;342757;28;1613;-86
2022/10/29 00:24:49;;;;;;;8.85;4.55;;;;;;;15.02;80.31;100188.19;343385;28;1690;-86
2022/10/29 00:25:03;;;;;;;7.15;4.65;;;;;;;14.99;80.43;100189.16;343713;28;1009;-86
2022/10/29 00:25:15;;;;;;;7.88;4.97;;;;;;;14.95;80.46;100190.19;343480;28;1059;-86
2022/10/29 00:25:27;;;;;;;9.07;4.88;;;;;;;14.92;80.75;100190.31;341081;29;1664;-86
2022/10/29 00:25:39;;;;;;;10.57;4.88;;;;;;;14.92;80.79;100191.16;341185;29;730;-86
2022/10/29 00:26:01;;;;;;;11.00;5.00;;;;;;;14.94;80.68;100196.34;340903;29;2265;-85
2022/10/29 00:26:14;;;;;;;8.60;5.15;;;;;;;14.97;80.52;100191.00;341662;28;1156;-86
2022/10/29 00:26:28;;;;;;;10.75;5.10;;;;;;;15.01;80.45;100191.69;341092;29;1231;-86
2022/10/29 00:26:41;;;;;;;10.27;4.60;;;;;;;15.03;80.46;100190.72;340899;29;1211;-86
2022/10/29 00:26:53;;;;;;;8.40;4.47;;;;;;;15.05;80.31;100191.53;339587;29;876;-85
2022/10/29 00:27:09;;;;;;;9.52;4.65;;;;;;;15.08;80.26;100190.53;339601;29;1098;-86
2022/10/29 00:27:21;;;;;;;8.98;4.90;;;;;;;15.10;80.26;100196.56;340431;29;1161;-86
2022/10/29 00:27:34;;;;;;;7.22;4.75;;;;;;;15.12;80.04;100195.56;342079;28;841;-86
2022/10/29 00:27:46;;;;;;;6.20;4.20;;;;;;;15.13;79.98;100192.03;341392;28;1663;-86
2022/10/29 00:27:59;;;;;;;8.10;4.22;;;;;;;15.15;80.07;100189.34;340732;28;2085;-86
2022/10/29 00:28:11;;;;;;;9.52;4.50;;;;;;;15.17;79.94;100193.63;339701;29;943;-85
2022/10/29 00:28:24;;;;;;;12.50;4.75;;;;;;;15.16;79.82;100196.28;341953;28;1616;-85
2022/10/29 00:28:37;;;;;;;11.25;4.70;;;;;;;15.15;79.65;100194.56;342428;28;936;-86
2022/10/29 00:28:53;;;;;;;9.45;4.70;;;;;;;15.13;79.58;100186.81;342248;28;1395;-86
2022/10/29 00:29:05;;;;;;;9.57;4.22;;;;;;;15.11;79.35;100193.00;344179;28;939;-85
2022/10/29 00:29:17;;;;;;;10.43;4.00;;;;;;;15.07;79.58;100192.31;342386;28;1587;-85
2022/10/29 00:29:31;;;;;;;10.18;4.20;;;;;;;15.07;79.41;100197.53;342647;28;1907;-85
2022/10/29 00:29:43;;;;;;;9.23;4.40;;;;;;;15.06;79.70;100190.59;342358;28;906;-86
2022/10/29 00:29:55;;;;;;;10.27;4.50;;;;;;;15.04;79.71;100197.66;342822;28;2966;-86
2022/10/29 00:30:08;;;;;;;9.60;4.53;;;;;;;15.06;79.84;100201.06;342702;28;1739;-86
2022/10/29 00:30:20;;;;;;;7.78;4.25;;;;;;;15.07;79.63;100202.78;343447;28;1793;-86
2022/10/29 00:30:34;;;;;;;5.95;4.07;;;;;;;15.09;79.56;100194.84;343602;28;1221;-86
2022/10/29 00:30:48;;;;;;;6.80;4.50;;;;;;;15.10;79.69;100191.31;341682;28;1662;-85
2022/10/29 00:31:13;;;;;;;7.40;4.65;;;;;;;15.05;79.76;100188.91;341501;28;1768;-85
2022/10/29 00:31:26;;;;;;;9.98;4.80;;;;;;;15.02;79.61;100194.25;339667;29;1095;-85
2022/10/29 00:31:38;;;;;;;8.85;4.82;;;;;;;15.00;79.56;100195.25;341013;29;1075;-85
2022/10/29 00:31:50;;;;;;;8.82;4.72;;;;;;;14.98;79.55;100197.91;341149;28;802;-85
2022/10/29 00:32:08;;;;;;;10.68;4.75;;;;;;;14.98;79.97;100197.91;342188;28;3134;-85
2022/10/29 00:32:21;;;;;;;10.20;4.95;;;;;;;14.99;79.83;100194.41;341688;28;1374;-85
2022/10/29 00:32:35;;;;;;;8.90;4.60;;;;;;;15.01;79.85;100200.44;342047;28;1056;-85
2022/10/29 00:32:47;;;;;;;7.00;4.15;;;;;;;15.03;79.55;100195.97;341673;28;802;-85
2022/10/29 00:32:59;;;;;;;7.30;4.00;;;;;;;15.05;79.98;100198.50;345007;28;899;-85
2022/10/29 00:33:12;;;;;;;6.70;4.18;;;;;;;15.06;79.92;100203.69;345165;28;767;-86
2022/10/29 00:33:24;;;;;;;8.90;4.35;;;;;;;15.07;79.92;100196.66;342254;28;2145;-86
2022/10/29 00:33:37;;;;;;;9.48;4.53;;;;;;;15.04;79.88;100197.66;342340;28;1682;-85
2022/10/29 00:33:51;;;;;;;9.18;4.70;;;;;;;15.06;80.01;100197.59;342053;28;1070;-86
2022/10/29 00:34:03;;;;;;;7.50;4.65;;;;;;;15.07;79.83;100202.78;341137;29;796;-85
2022/10/29 00:34:15;;;;;;;7.05;4.60;;;;;;;15.07;80.04;100199.28;340549;28;1238;-85
2022/10/29 00:34:28;;;;;;;9.00;4.80;;;;;;;15.08;80.00;100194.00;340535;29;1365;-85
2022/10/29 00:34:40;;;;;;;10.32;4.80;;;;;;;15.06;79.90;100195.81;340478;29;2049;-85
2022/10/29 00:34:54;;;;;;;10.32;4.50;;;;;;;15.08;80.00;100194.00;339518;29;2102;-85
2022/10/29 00:35:07;;;;;;;9.63;4.18;;;;;;;15.08;79.87;100193.16;339803;29;869;-86
2022/10/29 00:35:20;;;;;;;8.90;4.15;;;;;;;15.10;79.87;100202.63;340112;29;1709;-86
2022/10/29 00:35:32;;;;;;;7.43;4.10;;;;;;;15.10;79.87;100197.41;340673;29;1091;-85
2022/10/29 00:35:57;;;;;;;7.80;4.15;;;;;;;15.12;79.89;100199.97;340825;29;1177;-86
2022/10/29 00:36:16;;;;;;;7.88;4.20;;;;;;;15.13;79.56;100197.28;339138;29;1031;-86
2022/10/29 00:36:29;;;;;;;8.20;3.90;;;;;;;15.12;79.82;100194.72;339600;29;2104;-86
2022/10/29 00:36:41;;;;;;;9.45;4.20;;;;;;;15.11;79.95;100199.13;339809;29;786;-86
2022/10/29 00:36:54;;;;;;;8.85;4.32;;;;;;;15.12;79.76;100195.56;340637;28;1660;-85
2022/10/29 00:37:07;;;;;;;7.88;4.15;;;;;;;15.11;79.60;100195.63;341277;29;1060;-86
2022/10/29 00:37:19;;;;;;;5.47;3.80;;;;;;;15.09;79.62;100200.94;341058;29;2167;-85
2022/10/29 00:37:31;;;;;;;5.10;3.72;;;;;;;15.11;79.84;100193.88;339802;29;1243;-85
2022/10/29 00:37:44;;;;;;;5.45;3.63;;;;;;;15.11;79.49;100204.34;341387;29;769;-85
2022/10/29 00:37:56;;;;;;;7.78;3.83;;;;;;;15.11;79.71;100204.34;341255;28;844;-85
2022/10/29 00:38:10;;;;;;;8.98;4.10;;;;;;;15.13;79.60;100202.50;341427;28;1653;-85
2022/10/29 00:38:25;;;;;;;9.45;4.28;;;;;;;15.14;79.49;100203.34;342041;28;1177;-85
2022/10/29 00:38:37;;;;;;;7.47;4.22;;;;;;;15.12;79.72;100200.81;342293;28;1111;-86
2022/10/29 00:38:50;;;;;;;6.88;4.18;;;;;;;15.12;79.76;100200.81;342368;28;1256;-85
2022/10/29 00:39:02;;;;;;;7.38;4.20;;;;;;;15.08;79.83;100204.47;342510;28;1083;-86
2022/10/29 00:39:15;;;;;;;7.07;4.22;;;;;;;15.08;79.68;100194.00;342417;28;3388;-85
2022/10/29 00:39:28;;;;;;;8.40;4.43;;;;;;;15.09;79.86;100200.94;341774;28;1829;-85
2022/10/29 00:39:40;;;;;;;7.75;4.40;;;;;;;15.09;79.78;100200.94;342746;28;1740;-86
2022/10/29 00:39:55;;;;;;;7.22;4.47;;;;;;;15.11;79.92;100199.13;343477;28;1090;-85
2022/10/29 00:40:08;;;;;;;7.70;4.57;;;;;;;15.12;79.72;100198.19;343625;28;1064;-86
2022/10/29 00:40:20;;;;;;;8.45;4.70;;;;;;;15.12;79.80;100200.81;343910;28;1251;-85
2022/10/29 00:40:37;;;;;;;9.13;4.63;;;;;;;15.13;79.68;100193.78;343265;28;1138;-85
2022/10/29 00:40:49;;;;;;;8.90;4.35;;;;;;;15.15;79.70;100200.69;343669;28;1277;-85
2022/10/29 00:41:03;;;;;;;8.63;4.20;;;;;;;15.16;79.47;100196.28;343846;28;2333;-85
2022/10/29 00:41:20;;;;;;;8.45;4.30;;;;;;;15.18;79.45;100197.91;343699;28;1100;-85
2022/10/29 00:41:32;;;;;;;8.00;4.60;;;;;;;15.17;79.38;100201.47;342278;28;1145;-85
2022/10/29 00:41:44;;;;;;;9.65;4.57;;;;;;;15.17;79.34;100193.63;342748;28;710;-85
2022/10/29 00:41:56;;;;;;;11.80;4.45;;;;;;;15.15;79.34;100200.69;342766;28;854;-85
2022/10/29 00:42:14;;;;;;;13.40;4.72;;;;;;;15.14;79.40;100198.97;342870;28;1628;-85
2022/10/29 00:42:26;;;;;;;8.23;4.50;;;;;;;15.12;79.74;100194.72;343224;28;1175;-85
2022/10/29 00:42:38;;;;;;;7.70;4.30;;;;;;;15.10;79.76;100191.31;343741;28;2119;-85
2022/10/29 00:42:50;;;;;;;11.13;4.50;;;;;;;15.09;79.87;100203.56;343788;28;1022;-85
2022/10/29 00:43:17;;;;;;;11.77;4.57;;;;;;;15.05;80.08;100199.38;343236;28;1729;-85
2022/10/29 00:43:35;;;;;;;7.47;4.60;;;;;;;15.06;80.03;100194.97;342388;28;1040;-85
2022/10/29 00:43:50;;;;;;;8.30;4.53;;;;;;;15.07;80.21;100200.16;342477;28;1206;-85
2022/10/29 00:44:17;;;;;;;10.02;4.90;;;;;;;15.06;80.19;100190.59;343118;28;1203;-86
2022/10/29 00:44:37;;;;;;;8.88;4.78;;;;;;;15.07;80.12;100192.31;343124;28;1471;-85
2022/10/29 00:44:50;;;;;;;8.73;4.50;;;;;;;15.10;79.93;100193.94;343263;28;1079;-85
2022/10/29 00:45:02;;;;;;;8.15;4.32;;;;;;;15.09;80.08;100195.72;343635;28;1046;-85
2022/10/29 00:45:19;;;;;;;7.57;4.38;;;;;;;15.06;80.10;100201.06;343571;28;908;-85
2022/10/29 00:45:31;;;;;;;6.82;4.15;;;;;;;15.07;80.01;100192.31;342913;28;1082;-85
2022/10/29 00:45:53;;;;;;;7.10;4.30;;;;;;;15.07;79.97;100192.31;343196;28;1294;-85
2022/10/29 00:46:12;;;;;;;7.65;4.63;;;;;;;15.09;79.86;100190.47;343775;28;1115;-85
2022/10/29 00:46:32;;;;;;;6.70;4.35;;;;;;;15.06;80.02;100190.59;342182;28;1156;-85
2022/10/29 00:46:51;;;;;;;8.73;4.57;;;;;;;15.08;79.90;100185.28;342434;28;1093;-85
2022/10/29 00:47:17;;;;;;;8.35;4.22;;;;;;;15.11;79.68;100195.63;342620;28;1228;-85
2022/10/29 00:47:33;;;;;;;9.27;4.18;;;;;;;15.11;79.78;100186.03;342459;28;1090;-85
2022/10/29 00:47:49;;;;;;;10.52;4.47;;;;;;;15.12;79.58;100190.31;342497;28;1047;-85
2022/10/29 00:48:01;;;;;;;10.82;4.72;;;;;;;15.11;79.72;100187.75;342734;28;856;-85
2022/10/29 00:48:14;;;;;;;9.75;4.63;;;;;;;15.10;79.75;100193.94;342517;28;1054;-85
2022/10/29 00:48:28;;;;;;;8.15;4.55;;;;;;;15.10;79.53;100189.53;343329;28;765;-85
2022/10/29 00:48:50;;;;;;;7.03;4.40;;;;;;;15.09;79.27;100190.47;342239;28;1012;-85
2022/10/29 00:49:02;;;;;;;10.55;4.57;;;;;;;15.11;79.18;100187.75;342190;28;1222;-85
2022/10/29 00:49:16;;;;;;;9.77;4.57;;;;;;;15.12;79.32;100194.72;342649;28;768;-85
2022/10/29 00:49:31;;;;;;;8.70;4.43;;;;;;;15.13;79.08;100192.03;341264;28;1916;-85
2022/10/29 00:49:46;;;;;;;9.23;4.30;;;;;;;15.16;79.24;100191.91;340153;29;2234;-84
2022/10/29 00:50:05;;;;;;;7.70;4.05;;;;;;;15.14;78.97;100193.72;342075;28;1556;-85
2022/10/29 00:50:22;;;;;;;7.70;4.50;;;;;;;15.16;79.27;100189.28;341449;28;1783;-85
2022/10/29 00:50:35;;;;;;;10.50;4.57;;;;;;;15.13;79.02;100189.44;341933;28;1242;-85
2022/10/29 00:50:51;;;;;;;9.65;4.47;;;;;;;15.10;79.10;100186.91;343984;28;960;-85
2022/10/29 00:51:07;;;;;;;10.63;4.38;;;;;;;15.07;79.21;100188.81;342292;28;1140;-85
2022/10/29 00:51:20;;;;;;;9.20;4.28;;;;;;;14.98;79.38;100198.75;342174;28;1204;-85
2022/10/29 00:51:33;;;;;;;6.68;4.25;;;;;;;14.98;79.47;100192.69;342078;28;1161;-85
2022/10/29 00:51:46;;;;;;;6.50;4.40;;;;;;;14.99;79.50;100191.78;342282;28;1035;-85
2022/10/29 00:52:01;;;;;;;7.27;4.23;;;;;;;15.01;79.47;100192.56;342288;28;1422;-86
2022/10/29 00:52:16;;;;;;;9.80;4.07;;;;;;;15.02;79.56;100194.25;342388;28;1748;-85
2022/10/29 00:52:33;;;;;;;10.18;4.20;;;;;;;14.99;79.47;100194.41;340836;29;1036;-85
2022/10/29 00:52:48;;;;;;;7.82;4.28;;;;;;;14.97;79.38;100196.22;341215;29;951;-85
2022/10/29 00:53:01;;;;;;;8.70;4.40;;;;;;;14.96;79.61;100194.50;340890;28;1009;-85
2022/10/29 00:53:18;;;;;;;9.27;4.22;;;;;;;14.97;79.46;100196.22;341248;29;845;-85
2022/10/29 00:53:36;;;;;;;7.10;3.92;;;;;;;14.99;79.56;100197.03;341440;28;1152;-85
2022/10/29 00:53:54;;;;;;;7.18;4.03;;;;;;;14.98;79.56;100192.69;342061;28;1278;-85
2022/10/29 00:54:11;;;;;;;8.65;4.13;;;;;;;14.96;79.98;100197.13;342423;28;1071;-85
2022/10/29 00:54:23;;;;;;;9.00;4.18;;;;;;;14.96;79.82;100199.75;342441;28;2238;-85
2022/10/29 00:54:39;;;;;;;9.50;4.30;;;;;;;14.96;79.74;100205.00;340619;28;1837;-86
2022/10/29 00:54:53;;;;;;;8.10;4.20;;;;;;;14.96;79.79;100194.50;339852;29;1068;-85
2022/10/29 00:55:07;;;;;;;6.40;4.00;;;;;;;14.96;79.77;100194.50;339996;29;839;-85
2022/10/29 00:55:20;;;;;;;7.07;4.03;;;;;;;14.97;79.62;100191.00;341344;28;1690;-85
2022/10/29 00:55:32;;;;;;;10.25;4.28;;;;;;;14.95;79.72;100193.66;342494;28;2416;-85
2022/10/29 00:55:44;;;;;;;11.38;4.50;;;;;;;14.93;79.75;100205.09;342453;28;2159;-85
2022/10/29 00:55:57;;;;;;;9.63;4.60;;;;;;;14.91;79.78;100196.47;341408;29;1109;-85
2022/10/29 00:56:10;;;;;;;9.82;4.72;;;;;;;14.91;79.86;100191.22;340965;29;1816;-85
2022/10/29 00:56:25;;;;;;;10.52;4.43;;;;;;;14.93;79.80;100194.63;341080;28;1503;-85
2022/10/29 00:56:40;;;;;;;9.00;4.25;;;;;;;14.95;79.73;100205.88;342193;28;988;-85
2022/10/29 00:56:59;;;;;;;7.85;4.38;;;;;;;14.91;80.08;100196.47;342572;28;1123;-86
2022/10/29 00:57:17;;;;;;;9.52;4.53;;;;;;;14.89;80.02;100199.16;341917;28;1179;-85
2022/10/29 00:57:35;;;;;;;9.75;4.32;;;;;;;14.88;80.44;100202.69;342574;28;1205;-85
2022/10/29 00:57:51;;;;;;;9.65;4.30;;;;;;;14.88;80.17;100201.84;342081;28;1072;-86
2022/10/29 00:58:04;;;;;;;11.98;4.47;;;;;;;14.88;80.09;100207.91;341182;29;1743;-85
2022/10/29 00:58:16;;;;;;;12.02;4.40;;;;;;;14.90;80.08;100205.25;341311;28;1724;-85
2022/10/29 00:58:28;;;;;;;8.95;4.28;;;;;;;14.91;79.80;100199.06;342045;28;1722;-85
2022/10/29 00:58:42;;;;;;;7.70;4.60;;;;;;;14.91;79.90;100202.56;342406;28;1227;-85
2022/10/29 00:58:54;;;;;;;9.23;4.67;;;;;;;14.90;79.82;100200.00;342482;28;1087;-85
2022/10/29 00:59:08;;;;;;;10.55;4.38;;;;;;;14.90;80.02;100207.88;342498;28;1010;-85
2022/10/29 00:59:20;;;;;;;9.05;4.45;;;;;;;14.90;79.90;100206.09;341848;28;1259;-85
2022/10/29 00:59:34;;;;;;;7.63;4.40;;;;;;;14.91;79.83;100206.94;340653;29;1465;-85
2022/10/29 00:59:48;;;;;;;7.40;4.00;;;;;;;14.89;79.76;100204.41;340758;29;1200;-85
2022/10/29 01:00:06;;;;;;;9.10;4.25;;;;;;;14.88;79.93;100201.84;340758;29;1135;-86
2022/10/29 01:00:19;;;;;;;10.73;4.40;;;;;;;14.91;79.77;100206.94;339795;29;1255;-85
2022/10/29 01:00:32;;;;;;;9.98;4.20;;;;;;;14.91;79.69;100205.19;339765;29;1195;-85
2022/10/29 01:00:44;;;;;;;9.13;4.28;;;;;;;14.93;79.52;100210.34;339949;29;755;-85
2022/10/29 01:00:56;;;;;;;7.72;4.20;;;;;;;14.93;79.36;100210.34;339817;29;2161;-85
2022/10/29 01:01:08;;;;;;;6.90;3.92;;;;;;;14.93;79.37;100205.97;339921;29;1176;-85
2022/10/29 01:01:21;;;;;;;5.82;3.85;;;;;;;14.93;79.22;100212.94;339598;29;1308;-85
2022/10/29 01:01:36;;;;;;;9.13;4.15;;;;;;;14.90;79.37;100200.00;340102;29;1255;-85
2022/10/29 01:01:48;;;;;;;9.63;4.35;;;;;;;14.88;79.46;100201.84;341148;29;1183;-85
2022/10/29 01:02:02;;;;;;;8.98;4.38;;;;;;;14.88;79.47;100209.69;340920;29;1060;-85
2022/10/29 01:02:15;;;;;;;10.30;4.38;;;;;;;14.88;79.19;100207.91;341053;29;2234;-85
2022/10/29 01:02:30;;;;;;;10.20;4.07;;;;;;;14.87;79.15;100205.34;342532;28;1014;-85
2022/10/29 01:02:46;;;;;;;8.70;3.63;;;;;;;14.89;79.29;100203.53;342373;28;1017;-86
2022/10/29 01:02:58;;;;;;;7.65;3.83;;;;;;;14.87;79.36;100201.00;342478;28;1044;-86
2022/10/29 01:03:10;;;;;;;8.27;4.40;;;;;;;14.84;79.45;100200.25;342112;28;1031;-85
2022/10/29 01:03:23;;;;;;;10.20;4.40;;;;;;;14.83;79.27;100206.41;343267;28;741;-85
2022/10/29 01:03:37;;;;;;;10.73;4.28;;;;;;;14.80;79.44;100204.78;343427;28;1241;-86
2022/10/29 01:03:51;;;;;;;12.27;4.20;;;;;;;14.80;79.74;100204.78;343801;28;1040;-85
2022/10/29 01:04:04;;;;;;;11.63;4.38;;;;;;;14.76;80.02;100208.44;343605;28;1055;-86
2022/10/29 01:04:17;;;;;;;9.80;4.28;;;;;;;14.75;79.94;100197.13;343612;28;1185;-85
2022/10/29 01:04:29;;;;;;;7.72;4.00;;;;;;;14.74;79.86;100199.78;343316;28;1460;-86
2022/10/29 01:04:42;;;;;;;8.27;3.85;;;;;;;14.73;80.11;100204.19;343268;28;1567;-85
2022/10/29 01:04:54;;;;;;;10.48;4.00;;;;;;;14.71;80.32;100199.94;343335;28;1206;-85
2022/10/29 01:05:08;;;;;;;11.27;4.05;;;;;;;14.67;80.34;100203.56;343742;28;1697;-85
2022/10/29 01:05:23;;;;;;;10.70;4.25;;;;;;;14.67;80.11;100204.44;344129;28;1120;-85
2022/10/29 01:05:36;;;;;;;9.80;4.45;;;;;;;14.67;80.04;100193.09;343619;28;2129;-85
2022/10/29 01:05:50;;;;;;;9.93;4.60;;;;;;;14.66;80.15;100197.47;341927;28;1172;-85